Time;durP1;ratioP1;P1;durP2;ratioP2;P2;SDS_P1;SDS_P2;PMS_P1;PMS_P2;Temp;Humidity;BMP_temperature;BMP_pressure;BME280_temperature;BME280_humidity;BME280_pressure;Samples;Min_cycle;Max_cycle;Signal;HPM_P1;HPM_P2
2022/10/13 00:03:25;;;;;;;37.43;20.97;;;;;;;7.31;87.33;101412.52;3741700;78;31599;-87
2022/10/13 00:08:25;;;;;;;41.73;20.37;;;;;;;7.28;87.52;101411.80;3731389;78;98819;-87
2022/10/13 00:13:27;;;;;;;39.40;21.73;;;;;;;7.20;87.57;101402.50;3737855;78;31623;-88
2022/10/13 00:18:28;;;;;;;44.43;22.27;;;;;;;7.18;87.65;101400.67;3723865;78;98888;-87
2022/10/13 00:23:29;;;;;;;43.10;21.57;;;;;;;7.12;87.83;101403.36;3721554;79;31704;-86
2022/10/13 00:28:31;;;;;;;44.83;21.47;;;;;;;7.12;88.03;101388.86;3680647;79;98475;-87
2022/10/13 00:33:33;;;;;;;40.80;20.63;;;;;;;7.08;87.88;101383.80;3716142;79;33110;-87
2022/10/13 00:38:34;;;;;;;41.87;21.50;;;;;;;7.01;87.80;101383.53;3688411;79;98543;-86
2022/10/13 00:44:07;;;;;;;42.57;21.77;;;;;;;6.99;87.91;101388.54;3700476;79;31671;-87
2022/10/13 00:49:12;;;;;;;39.05;20.20;;;;;;;6.94;88.37;101392.83;3684665;78;98819;-87
2022/10/13 00:54:17;;;;;;;41.83;20.35;;;;;;;6.95;88.33;101390.32;3709072;78;32938;-87
2022/10/13 00:59:27;;;;;;;44.03;20.35;;;;;;;6.90;88.48;101389.95;3681573;78;98664;-87
2022/10/13 01:04:36;;;;;;;43.75;22.07;;;;;;;6.88;88.55;101381.25;3657792;80;32127;-87
2022/10/13 01:09:37;;;;;;;40.75;21.73;;;;;;;6.88;88.79;101381.83;3709821;78;98591;-87
2022/10/13 01:15:00;;;;;;;40.27;21.53;;;;;;;6.87;88.66;101381.02;3734352;77;31591;-87
2022/10/13 01:20:35;;;;;;;39.80;20.43;;;;;;;6.83;88.70;101377.32;3723175;78;98633;-86
2022/10/13 01:25:53;;;;;;;37.58;21.00;;;;;;;6.75;88.52;101370.52;3738854;78;34022;-87
2022/10/13 01:30:59;;;;;;;44.05;22.95;;;;;;;6.73;88.96;101374.16;3704714;78;98644;-87
2022/10/13 01:36:30;;;;;;;41.50;22.25;;;;;;;6.70;89.03;101365.27;3730029;78;26459;-87
2022/10/13 01:41:40;;;;;;;40.67;21.68;;;;;;;6.63;88.89;101355.37;3728439;78;33038;-87
2022/10/13 01:46:43;;;;;;;43.08;22.00;;;;;;;6.57;88.95;101354.77;3721991;78;98859;-87
2022/10/13 01:51:45;;;;;;;46.05;23.55;;;;;;;6.53;89.10;101350.26;3748672;78;32966;-87
2022/10/13 01:56:54;;;;;;;44.33;22.35;;;;;;;6.52;89.15;101341.83;3720994;78;98692;-86
2022/10/13 02:02:17;;;;;;;41.28;22.13;;;;;;;6.49;89.25;101329.61;3743958;77;32966;-87
2022/10/13 02:07:29;;;;;;;43.48;22.82;;;;;;;6.45;89.56;101330.05;3720321;77;98542;-87
2022/10/13 02:12:38;;;;;;;43.55;24.52;;;;;;;6.44;89.43;101319.43;3688494;78;32979;-87
2022/10/13 02:17:40;;;;;;;44.90;22.85;;;;;;;6.35;89.19;101318.65;3699618;78;98568;-87
2022/10/13 02:22:45;;;;;;;48.13;24.18;;;;;;;6.26;89.18;101306.38;3712849;77;33248;-87
2022/10/13 02:27:46;;;;;;;46.65;24.00;;;;;;;6.21;89.73;101306.55;3725819;77;98473;-87
2022/10/13 02:32:47;;;;;;;47.87;25.03;;;;;;;6.21;89.71;101303.82;3723641;78;31694;-86
2022/10/13 02:37:48;;;;;;;52.20;24.73;;;;;;;6.18;89.68;101308.59;3726111;77;98613;-87
2022/10/13 02:42:49;;;;;;;46.50;24.47;;;;;;;6.16;89.86;101308.09;3735405;78;31624;-86
2022/10/13 02:47:50;;;;;;;53.87;25.68;;;;;;;6.13;89.83;101310.12;3737444;78;99096;-86
2022/10/13 02:52:51;;;;;;;47.70;24.60;;;;;;;6.13;90.08;101310.12;3750681;78;31582;-87
2022/10/13 02:57:52;;;;;;;45.92;25.52;;;;;;;6.15;90.25;101308.41;3733665;78;98842;-86
2022/10/13 03:02:53;;;;;;;52.57;26.00;;;;;;;6.14;89.82;101305.45;3719689;78;31658;-87
2022/10/13 03:07:53;;;;;;;46.37;24.63;;;;;;;6.12;90.25;101301.66;3719598;77;98499;-87
2022/10/13 03:12:54;;;;;;;46.65;24.40;;;;;;;6.13;90.23;101295.65;3713107;78;31417;-87
2022/10/13 03:17:55;;;;;;;49.20;26.73;;;;;;;6.12;90.25;101300.88;3714508;78;98689;-86
2022/10/13 03:22:56;;;;;;;47.50;24.67;;;;;;;6.09;90.02;101302.89;3713943;78;25870;-87
2022/10/13 03:27:56;;;;;;;44.53;23.57;;;;;;;6.03;90.00;101293.26;3734325;78;98895;-87
2022/10/13 03:33:01;;;;;;;44.80;26.10;;;;;;;6.00;90.08;101287.88;3737360;78;35985;-86
2022/10/13 03:38:02;;;;;;;45.30;25.17;;;;;;;5.95;90.23;101279.08;3733460;77;98900;-87
2022/10/13 03:43:03;;;;;;;46.73;24.30;;;;;;;5.87;90.17;101286.16;3733319;78;35364;-87
2022/10/13 03:48:04;;;;;;;45.75;25.75;;;;;;;5.85;90.27;101280.78;3637998;79;98534;-87
2022/10/13 03:53:05;;;;;;;43.80;24.97;;;;;;;5.83;90.57;101277.00;3657181;80;34831;-87
2022/10/13 03:58:06;;;;;;;47.40;25.75;;;;;;;5.84;90.84;101286.80;3578094;80;98580;-87
2022/10/13 04:03:06;;;;;;;45.30;25.87;;;;;;;5.85;90.83;101287.03;3644452;80;34829;-87
2022/10/13 04:08:07;;;;;;;42.60;24.73;;;;;;;5.85;91.00;101289.76;3658880;80;98721;-87
2022/10/13 04:13:08;;;;;;;42.87;23.87;;;;;;;5.85;90.79;101280.78;3665247;80;34807;-87
2022/10/13 04:23:37;;;;;;;48.28;25.75;;;;;;;5.72;90.63;101283.11;3518102;83;33271;-87
2022/10/13 04:28:37;;;;;;;49.00;26.10;;;;;;;5.65;90.84;101278.13;3556262;81;98807;-87
2022/10/13 04:33:38;;;;;;;44.03;24.47;;;;;;;5.60;90.73;101278.84;3566739;81;33235;-87
2022/10/13 04:38:41;;;;;;;45.60;26.20;;;;;;;5.53;90.96;101269.80;3579391;80;98507;-87
2022/10/13 04:43:42;;;;;;;46.53;25.33;;;;;;;5.50;91.15;101266.89;3623234;80;26432;-87
2022/10/13 04:48:43;;;;;;;48.47;25.03;;;;;;;5.47;91.17;101267.55;3637067;80;98699;-87
2022/10/13 04:53:45;;;;;;;47.90;25.33;;;;;;;5.46;91.26;101262.64;3663886;80;25843;-91
2022/10/13 04:58:46;;;;;;;52.67;26.57;;;;;;;5.39;91.19;101256.87;3659415;80;99091;-88
2022/10/13 05:03:49;;;;;;;47.70;26.65;;;;;;;5.37;91.56;101257.77;3659667;80;25961;-89
2022/10/13 05:08:51;;;;;;;54.98;27.82;;;;;;;5.37;91.45;101256.95;3645457;79;98831;-89
2022/10/13 05:13:52;;;;;;;52.27;28.60;;;;;;;5.36;91.72;101253.98;3640071;80;26470;-91
2022/10/13 05:18:54;;;;;;;49.27;27.17;;;;;;;5.34;91.74;101242.02;3644906;78;98862;-91
2022/10/13 05:23:56;;;;;;;52.40;28.12;;;;;;;5.31;91.95;101246.78;3690411;79;35474;-90
2022/10/13 05:28:59;;;;;;;46.55;26.60;;;;;;;5.31;91.86;101248.69;3676582;79;98575;-89
2022/10/13 05:34:00;;;;;;;50.25;27.67;;;;;;;5.30;92.07;101245.73;3601999;81;34766;-89
2022/10/13 05:39:06;;;;;;;46.37;26.33;;;;;;;5.30;91.92;101238.91;3642183;80;98702;-89
2022/10/13 05:44:08;;;;;;;47.45;26.25;;;;;;;5.28;91.97;101232.95;3612825;80;25816;-89
2022/10/13 05:49:10;;;;;;;51.13;26.68;;;;;;;5.25;92.17;101223.47;3653220;79;98774;-89
2022/10/13 05:54:25;;;;;;;46.40;26.63;;;;;;;5.25;92.30;101223.47;3596530;82;25710;-89
2022/10/13 05:59:29;;;;;;;51.58;25.85;;;;;;;5.27;92.33;101221.80;3576832;81;98812;-89
2022/10/13 06:04:34;;;;;;;51.35;27.30;;;;;;;5.31;92.54;101230.95;3664241;80;34216;-88
2022/10/13 06:09:37;;;;;;;46.03;25.97;;;;;;;5.30;92.73;101229.34;3628432;80;98571;-89
2022/10/13 06:14:38;;;;;;;46.98;25.48;;;;;;;5.29;93.11;101220.93;3609236;81;33589;-88
2022/10/13 06:19:38;;;;;;;43.40;26.03;;;;;;;5.33;93.13;101221.31;3621520;80;98368;-88
2022/10/13 06:24:39;;;;;;;53.17;27.37;;;;;;;5.39;93.52;101213.75;3721313;78;33323;-90
2022/10/13 06:29:40;;;;;;;53.37;25.60;;;;;;;5.45;93.90;101221.45;3724391;78;98666;-91
2022/10/13 06:34:41;;;;;;;45.00;25.40;;;;;;;5.55;94.15;101216.21;3719224;78;33260;-89
2022/10/13 06:39:42;;;;;;;53.80;27.30;;;;;;;5.64;94.23;101208.27;3724882;77;98713;-90
2022/10/13 06:44:43;;;;;;;48.03;26.53;;;;;;;5.75;94.61;101202.69;3715299;78;32476;-90
2022/10/13 06:49:43;;;;;;;49.95;26.95;;;;;;;5.90;94.52;101202.75;3714916;78;98274;-91
2022/10/13 06:54:44;;;;;;;50.33;26.80;;;;;;;6.00;94.88;101197.72;3727218;78;27315;-91
2022/10/13 06:59:45;;;;;;;49.13;26.67;;;;;;;6.16;94.60;101197.98;3725837;77;98913;-90
2022/10/13 07:04:47;;;;;;;47.23;25.53;;;;;;;6.29;94.94;101197.76;3717467;77;25775;-88
2022/10/13 07:09:48;;;;;;;43.00;24.30;;;;;;;6.48;94.83;101201.41;3720394;77;98423;-89
2022/10/13 07:14:49;;;;;;;38.77;23.37;;;;;;;6.69;94.71;101199.51;3717970;77;25768;-92
2022/10/13 07:19:49;;;;;;;42.13;24.20;;;;;;;6.86;94.47;101195.28;3692774;78;98634;-91
2022/10/13 07:24:50;;;;;;;44.07;24.60;;;;;;;7.07;94.45;101198.26;3682699;78;26388;-90
2022/10/13 07:29:51;;;;;;;47.27;23.83;;;;;;;7.32;93.88;101195.06;3675299;78;98557;-90
2022/10/13 07:34:52;;;;;;;41.80;23.50;;;;;;;7.48;94.04;101191.92;3689311;79;25998;-91
2022/10/13 07:39:54;;;;;;;40.63;22.87;;;;;;;7.66;93.46;101184.56;3675970;78;98653;-88
2022/10/13 07:44:54;;;;;;;41.40;23.67;;;;;;;7.91;93.12;101177.19;3658011;79;25940;-89
2022/10/13 07:49:55;;;;;;;39.40;21.37;;;;;;;8.12;92.66;101177.30;3652581;79;98649;-88
2022/10/13 07:54:56;;;;;;;40.70;22.57;;;;;;;8.33;92.09;101171.72;3669503;80;33413;-88
2022/10/13 07:59:57;;;;;;;38.43;19.97;;;;;;;8.55;91.89;101173.98;3722022;77;98291;-89
2022/10/13 08:04:57;;;;;;;34.73;19.87;;;;;;;8.81;91.15;101173.03;3725338;77;33489;-88
2022/10/13 08:09:58;;;;;;;35.80;18.60;;;;;;;9.09;90.71;101168.36;3766580;77;98656;-88
2022/10/13 08:14:59;;;;;;;31.60;19.07;;;;;;;9.36;90.16;101174.43;3790131;77;33399;-89
2022/10/13 08:20:00;;;;;;;33.50;18.10;;;;;;;9.65;89.83;101171.32;3792113;77;98795;-88
2022/10/13 08:25:01;;;;;;;29.40;17.72;;;;;;;9.98;89.52;101162.95;3791249;77;33477;-90
2022/10/13 08:30:03;;;;;;;38.67;17.30;;;;;;;10.34;89.11;101162.69;3787457;77;98544;-91
2022/10/13 08:35:05;;;;;;;29.45;17.12;;;;;;;10.75;88.29;101160.67;3776623;77;33606;-87
2022/10/13 08:40:10;;;;;;;28.27;15.50;;;;;;;11.27;87.94;101155.48;3780705;77;98785;-87
2022/10/13 08:45:22;;;;;;;27.55;15.50;;;;;;;12.38;85.00;101146.23;3775813;77;33141;-88
2022/10/13 08:50:28;;;;;;;25.00;14.68;;;;;;;12.38;85.00;101146.23;3779570;77;98603;-88
2022/10/13 08:55:43;;;;;;;27.70;15.50;;;;;;;13.02;83.98;101141.83;3785160;77;25874;-89
2022/10/13 09:00:44;;;;;;;31.02;13.65;;;;;;;13.77;82.58;101134.55;3679125;78;98923;-87
2022/10/13 09:05:50;;;;;;;20.40;12.10;;;;;;;14.50;80.95;101140.70;3719341;78;26338;-89
2022/10/13 09:10:52;;;;;;;28.38;12.18;;;;;;;15.17;78.17;101129.97;3722568;77;99199;-90
2022/10/13 09:15:55;;;;;;;29.63;11.45;;;;;;;15.73;77.03;101118.44;3742321;77;32940;-90
2022/10/13 09:21:19;;;;;;;30.43;13.20;;;;;;;16.33;74.50;101117.03;3717134;78;98787;-90
2022/10/13 09:26:23;;;;;;;26.37;13.33;;;;;;;16.80;72.14;101124.91;3720310;78;106948;-95
2022/10/13 09:31:29;;;;;;;23.67;12.75;;;;;;;17.35;70.95;101116.93;3739760;77;33015;-91
2022/10/13 09:36:30;;;;;;;21.75;12.07;;;;;;;17.81;67.88;101115.25;3704310;78;98829;-91
2022/10/13 09:41:32;;;;;;;23.10;12.07;;;;;;;18.27;67.54;101107.31;3734629;77;30112;-89
2022/10/13 09:46:53;;;;;;;23.37;12.03;;;;;;;18.83;66.44;101114.51;3718044;77;99331;-87
2022/10/13 09:52:14;;;;;;;23.47;12.55;;;;;;;19.01;64.58;101104.55;3712204;78;30114;-91
2022/10/13 09:57:41;;;;;;;25.50;11.77;;;;;;;19.24;62.90;101098.45;3723896;78;98948;-90
2022/10/13 10:02:55;;;;;;;22.10;11.00;;;;;;;19.43;61.95;101089.42;3743144;78;26670;-89
2022/10/13 10:08:02;;;;;;;20.97;10.60;;;;;;;19.85;61.10;101079.60;3735486;78;98937;-88
2022/10/13 10:13:03;;;;;;;25.25;11.85;;;;;;;20.09;60.18;101075.62;3722890;78;33040;-88
2022/10/13 10:18:15;;;;;;;22.15;9.55;;;;;;;20.41;59.39;101080.83;3714430;78;98790;-87
2022/10/13 10:23:45;;;;;;;20.02;9.08;;;;;;;20.44;57.54;101079.19;3738066;78;33489;-91
2022/10/13 10:29:18;;;;;;;20.82;9.55;;;;;;;20.43;57.55;101062.23;3713995;78;98896;-88
2022/10/13 10:34:37;;;;;;;22.10;9.55;;;;;;;20.47;56.64;101055.94;3738981;78;33157;-88
2022/10/13 10:39:48;;;;;;;21.75;10.23;;;;;;;20.50;56.57;101055.88;3641252;78;98783;-86
2022/10/13 10:44:52;;;;;;;18.92;9.53;;;;;;;20.40;54.70;101049.09;3681968;78;32914;-88
2022/10/13 10:49:58;;;;;;;18.45;9.18;;;;;;;20.34;55.98;101049.41;3675928;78;98711;-90
2022/10/13 10:55:08;;;;;;;18.95;9.65;;;;;;;20.47;54.90;101037.17;3683288;79;32975;-88
2022/10/13 11:00:19;;;;;;;16.37;9.23;;;;;;;20.40;54.57;101033.72;3662049;79;98757;-88
2022/10/13 11:05:20;;;;;;;21.33;8.95;;;;;;;20.32;55.09;101024.67;3687843;79;32883;-89
2022/10/13 11:10:23;;;;;;;19.80;9.30;;;;;;;20.32;54.96;101011.33;3683993;79;98432;-89
2022/10/13 11:15:32;;;;;;;15.40;9.28;;;;;;;20.09;54.33;101014.13;3691690;79;33760;-89
2022/10/13 11:20:39;;;;;;;17.75;8.70;;;;;;;19.94;54.41;101001.62;3705674;78;98298;-90
2022/10/13 11:25:45;;;;;;;17.42;8.03;;;;;;;19.78;54.11;101000.89;3713502;78;32920;-88
2022/10/13 11:31:06;;;;;;;12.90;7.63;;;;;;;19.76;55.12;100985.77;3704429;79;98726;-92
2022/10/13 11:36:47;;;;;;;17.15;8.68;;;;;;;19.79;55.36;100978.72;3689233;79;106107;-90
2022/10/13 11:42:13;;;;;;;13.78;8.03;;;;;;;19.65;54.61;100970.60;3697845;79;32922;-91
2022/10/13 11:48:02;;;;;;;17.80;7.83;;;;;;;19.56;54.84;100953.59;3712940;78;99998;-87
2022/10/13 11:53:29;;;;;;;19.23;8.23;;;;;;;19.53;55.56;100957.85;3723144;79;33038;-95
2022/10/13 11:58:32;;;;;;;18.70;7.62;;;;;;;19.41;54.46;100958.45;3718456;77;98655;-91
2022/10/13 12:03:37;;;;;;;12.45;6.45;;;;;;;19.25;55.07;100944.36;3739551;78;32967;-96
2022/10/13 12:08:38;;;;;;;17.65;7.90;;;;;;;19.27;55.32;100945.52;3740132;78;99020;-90
2022/10/13 12:13:44;;;;;;;17.37;8.27;;;;;;;19.25;55.26;100942.97;3744647;78;29560;-91
2022/10/13 12:18:44;;;;;;;14.07;7.78;;;;;;;19.19;55.41;100946.03;3716015;78;98898;-92
2022/10/13 12:23:48;;;;;;;15.47;8.30;;;;;;;19.09;53.63;100936.62;3733375;78;30134;-91
2022/10/13 12:28:56;;;;;;;16.73;8.63;;;;;;;18.96;55.26;100925.84;3726177;78;98843;-90
2022/10/13 12:34:02;;;;;;;15.68;7.33;;;;;;;18.90;55.78;100929.52;3731289;78;33254;-87
2022/10/13 12:39:11;;;;;;;17.75;8.18;;;;;;;18.82;55.86;100930.84;3679932;78;98861;-86
2022/10/13 12:44:23;;;;;;;17.82;8.33;;;;;;;18.77;56.03;100920.95;3703864;78;33437;-88
2022/10/13 12:49:30;;;;;;;17.17;8.55;;;;;;;18.61;56.13;100915.80;3691572;78;98651;-88
2022/10/13 12:54:35;;;;;;;21.48;9.08;;;;;;;18.50;56.66;100911.78;3697827;79;32939;-89
2022/10/13 12:59:40;;;;;;;15.93;8.53;;;;;;;18.52;56.24;100914.16;3685171;78;98559;-89
2022/10/13 13:04:42;;;;;;;18.85;7.50;;;;;;;18.33;56.25;100909.22;3706550;79;33005;-90
2022/10/13 13:10:01;;;;;;;18.07;9.30;;;;;;;18.33;56.71;100912.00;3684049;78;98466;-88
2022/10/13 13:15:31;;;;;;;18.90;9.00;;;;;;;18.30;56.48;100902.45;3703506;79;32947;-91
2022/10/13 13:20:36;;;;;;;16.37;8.25;;;;;;;18.16;56.45;100897.04;3693587;78;98798;-89
2022/10/13 13:25:36;;;;;;;18.55;8.15;;;;;;;18.12;57.11;100890.74;3694399;78;33376;-87
2022/10/13 13:30:37;;;;;;;21.07;8.30;;;;;;;18.16;57.66;100886.52;3687106;78;98654;-88
2022/10/13 13:35:38;;;;;;;15.87;7.67;;;;;;;18.23;57.92;100883.63;3693659;79;26009;-87
2022/10/13 13:40:38;;;;;;;20.53;9.60;;;;;;;18.25;58.03;100872.88;3716576;79;98522;-89
2022/10/13 13:45:39;;;;;;;20.87;9.47;;;;;;;18.22;57.47;100873.70;3702810;78;31620;-87
2022/10/13 13:50:40;;;;;;;18.25;8.03;;;;;;;18.15;57.36;100884.32;3689430;79;98488;-88
2022/10/13 13:55:43;;;;;;;18.03;9.63;;;;;;;18.12;57.62;100880.19;3701325;78;31610;-87
2022/10/13 14:00:44;;;;;;;17.20;8.13;;;;;;;18.11;57.92;100877.23;3696544;78;98802;-87
2022/10/13 14:05:45;;;;;;;16.93;7.50;;;;;;;18.11;58.18;100866.08;3692073;79;31724;-87
2022/10/13 14:10:45;;;;;;;16.73;8.87;;;;;;;18.11;58.32;100868.28;3731594;78;99102;-90
2022/10/13 14:15:58;;;;;;;22.30;8.77;;;;;;;18.21;58.47;100869.34;3732671;78;31620;-92
2022/10/13 14:20:59;;;;;;;18.67;7.92;;;;;;;18.23;58.29;100859.36;3745427;77;99043;-90
2022/10/13 14:26:06;;;;;;;19.57;9.93;;;;;;;18.22;58.36;100848.03;3770264;77;29095;-91
2022/10/13 14:31:08;;;;;;;16.80;8.18;;;;;;;18.19;58.51;100855.02;3748885;77;33616;-88
2022/10/13 14:36:09;;;;;;;18.12;9.15;;;;;;;18.17;58.32;100856.05;3750818;77;98788;-88
2022/10/13 14:41:10;;;;;;;16.70;9.33;;;;;;;18.11;58.29;100847.97;3718475;78;28666;-88
2022/10/13 14:46:11;;;;;;;16.87;8.10;;;;;;;18.02;58.45;100839.33;3696697;79;98879;-91
2022/10/13 14:51:12;;;;;;;18.97;8.70;;;;;;;17.96;58.85;100841.00;3709534;78;25941;-87
2022/10/13 14:56:20;;;;;;;19.53;7.80;;;;;;;17.86;58.89;100834.36;3705700;78;99049;-88
2022/10/13 15:01:21;;;;;;;15.32;9.05;;;;;;;17.76;59.08;100833.87;3707252;78;33002;-89
2022/10/13 15:06:25;;;;;;;16.00;8.47;;;;;;;17.69;59.15;100841.52;3712838;78;103617;-89
2022/10/13 15:11:26;;;;;;;16.77;8.85;;;;;;;17.53;59.57;100831.55;3708770;78;32968;-88
2022/10/13 15:16:32;;;;;;;22.77;9.30;;;;;;;17.46;59.78;100837.20;3632197;79;99104;-88
2022/10/13 15:21:33;;;;;;;;;;;;;;;17.32;60.37;100831.15;3591928;81;25895;-89
2022/10/13 15:26:35;;;;;;;17.47;6.77;;;;;;;17.20;60.83;100838.62;3708783;77;84814;-88
2022/10/13 15:31:36;;;;;;;18.80;8.88;;;;;;;16.96;61.00;100825.70;3708333;79;32940;-89
2022/10/13 15:36:37;;;;;;;20.55;10.15;;;;;;;16.90;61.55;100836.31;3714598;79;98651;-89
2022/10/13 15:41:38;;;;;;;26.13;9.87;;;;;;;16.73;61.74;100828.28;3731450;79;26500;-89
2022/10/13 15:46:39;;;;;;;18.50;9.23;;;;;;;16.58;62.05;100824.64;3701999;77;98555;-91
2022/10/13 15:51:39;;;;;;;14.10;8.00;;;;;;;16.40;62.38;100821.20;3726337;78;26520;-89
2022/10/13 15:56:40;;;;;;;17.17;8.70;;;;;;;16.18;62.94;100817.70;3724901;77;98831;-89
2022/10/13 16:01:41;;;;;;;20.17;10.88;;;;;;;15.99;63.46;100817.41;3676966;79;29143;-89
2022/10/13 16:06:42;;;;;;;20.70;10.15;;;;;;;15.83;64.09;100819.27;3672551;79;98846;-89
2022/10/13 16:11:42;;;;;;;18.63;10.30;;;;;;;15.65;64.46;100814.36;3659725;80;31015;-89
2022/10/13 16:16:43;;;;;;;21.93;10.70;;;;;;;15.50;65.03;100816.20;3639702;79;99069;-88
2022/10/13 16:21:45;;;;;;;20.77;11.63;;;;;;;15.32;65.71;100818.21;3660752;79;26916;-89
2022/10/13 16:26:46;;;;;;;19.13;10.13;;;;;;;15.17;66.56;100819.41;3658988;79;99009;-88
2022/10/13 16:31:47;;;;;;;22.33;11.43;;;;;;;15.00;67.04;100817.45;3719953;79;26897;-88
2022/10/13 16:36:49;;;;;;;26.17;15.37;;;;;;;14.85;67.81;100820.03;3698063;79;98858;-89
2022/10/13 16:41:50;;;;;;;32.57;17.63;;;;;;;14.66;68.33;100812.12;3708746;79;25843;-87
2022/10/13 16:46:52;;;;;;;31.20;16.80;;;;;;;14.48;68.80;100805.75;3700670;77;98797;-87
2022/10/13 16:51:53;;;;;;;34.03;20.93;;;;;;;14.33;69.24;100800.02;3726833;78;26919;-87
2022/10/13 16:56:54;;;;;;;34.43;19.43;;;;;;;14.19;69.61;100802.16;3698215;78;98858;-89
2022/10/13 17:01:56;;;;;;;30.23;18.13;;;;;;;14.04;69.77;100794.97;3721221;78;26119;-88
2022/10/13 17:06:57;;;;;;;33.53;17.63;;;;;;;13.91;70.12;100796.48;3692788;78;98853;-88
2022/10/13 17:11:58;;;;;;;31.67;19.27;;;;;;;13.77;70.47;100794.27;3695159;79;25487;-88
2022/10/13 17:16:59;;;;;;;28.40;14.70;;;;;;;13.67;71.03;100796.39;3686794;77;99002;-89
2022/10/13 17:22:00;;;;;;;28.07;15.20;;;;;;;13.52;71.20;100790.61;3702592;79;26665;-88
2022/10/13 17:27:04;;;;;;;23.33;13.50;;;;;;;13.43;71.47;100787.40;3689011;78;98882;-90
2022/10/13 17:32:09;;;;;;;27.75;14.73;;;;;;;13.32;71.74;100781.83;3704362;78;31600;-89
2022/10/13 17:37:10;;;;;;;26.68;15.48;;;;;;;13.23;72.00;100782.75;3677792;78;98824;-89
2022/10/13 17:42:11;;;;;;;27.03;15.00;;;;;;;13.13;72.34;100782.09;3690894;79;27904;-88
2022/10/13 17:47:12;;;;;;;25.83;15.53;;;;;;;13.06;72.64;100784.81;3694529;78;98992;-88
2022/10/13 17:52:13;;;;;;;25.57;15.77;;;;;;;12.97;73.02;100775.29;3708281;79;26627;-90
2022/10/13 17:57:14;;;;;;;30.47;15.93;;;;;;;12.92;73.22;100779.76;3702534;79;99042;-89
2022/10/13 18:02:14;;;;;;;31.03;18.57;;;;;;;12.83;73.46;100782.05;3705817;79;34911;-90
2022/10/13 18:07:26;;;;;;;26.77;15.17;;;;;;;12.75;73.79;100792.24;3704529;78;99181;-89
2022/10/13 18:12:27;;;;;;;26.17;13.85;;;;;;;12.69;74.26;100789.63;3689749;79;30886;-89
2022/10/13 18:17:28;;;;;;;29.30;15.80;;;;;;;12.61;74.63;100789.38;3716974;78;99046;-90
2022/10/13 18:22:39;;;;;;;28.13;16.67;;;;;;;12.53;74.81;100790.48;3720579;79;34927;-89
2022/10/13 18:27:40;;;;;;;26.68;17.10;;;;;;;12.47;75.34;100791.20;3687262;79;98815;-90
2022/10/13 18:32:46;;;;;;;36.00;21.47;;;;;;;12.41;75.53;100788.02;3718078;78;25966;-89
2022/10/13 18:37:53;;;;;;;;;;;;;;;12.33;75.73;100789.70;3690542;78;99241;-89
2022/10/13 18:42:53;;;;;;;30.90;20.00;;;;;;;12.25;76.97;100783.89;3729083;78;32808;-89
2022/10/13 18:47:54;;;;;;;33.00;20.57;;;;;;;12.16;76.32;100781.44;3679628;78;99438;-88
2022/10/13 18:52:57;;;;;;;29.80;19.40;;;;;;;12.12;76.35;100782.59;3722762;78;26996;-90
2022/10/13 18:57:59;;;;;;;31.95;19.42;;;;;;;12.07;76.62;100785.69;3721978;78;98963;-90
2022/10/13 19:03:04;;;;;;;29.77;18.40;;;;;;;12.02;76.97;100779.93;3733377;78;31654;-90
2022/10/13 19:08:08;;;;;;;31.40;18.45;;;;;;;12.01;77.12;100781.68;3712437;78;99356;-89
2022/10/13 19:13:08;;;;;;;33.02;19.75;;;;;;;11.98;77.40;100776.91;3742988;78;31985;-90
2022/10/13 19:18:08;;;;;;;36.00;21.03;;;;;;;11.82;77.43;100752.92;3729539;78;98961;-91
2022/10/13 19:23:15;;;;;;;31.77;17.93;;;;;;;11.92;77.59;100780.61;3745495;78;25756;-91
2022/10/13 19:28:16;;;;;;;;;;;;;;;11.87;77.84;100774.05;3756958;78;98907;-89
2022/10/13 19:33:22;;;;;;;35.73;19.07;;;;;;;11.83;79.02;100769.67;3772842;77;25874;-90
2022/10/13 19:38:28;;;;;;;;;;;;;;;11.78;78.17;100769.40;3738742;77;99796;-90
2022/10/13 19:43:30;;;;;;;41.30;22.67;;;;;;;11.74;79.11;100767.20;3718154;78;31632;-90
2022/10/13 19:48:31;;;;;;;37.78;23.00;;;;;;;11.64;78.76;100771.20;3713188;78;98833;-91
2022/10/13 19:53:33;;;;;;;38.97;22.73;;;;;;;11.64;78.76;100771.20;3711454;78;26885;-89
2022/10/13 19:58:35;;;;;;;37.25;21.30;;;;;;;11.61;78.88;100773.34;3700382;78;99385;-90
2022/10/13 20:03:45;;;;;;;39.30;23.18;;;;;;;11.57;78.94;100762.82;3679895;79;31760;-90
2022/10/13 20:14:03;;;;;;;41.60;23.92;;;;;;;11.49;79.50;100755.61;3647813;79;31076;-89
2022/10/13 20:19:19;;;;;;;39.18;22.95;;;;;;;11.46;79.72;100753.62;3679610;78;99106;-90
2022/10/13 20:24:27;;;;;;;42.43;24.75;;;;;;;11.40;79.83;100759.27;3702351;78;32311;-88
2022/10/13 20:29:26;;;;;;;42.43;25.85;;;;;;;11.40;80.13;100756.50;3660525;78;98897;-89
2022/10/13 20:34:27;;;;;;;43.93;26.80;;;;;;;11.36;80.18;100750.95;3704385;78;26213;-90
2022/10/13 20:39:28;;;;;;;45.73;27.43;;;;;;;11.32;80.22;100748.73;3703578;78;98639;-89
2022/10/13 20:44:29;;;;;;;45.03;25.23;;;;;;;11.28;80.51;100741.59;3695704;77;25988;-89
2022/10/13 20:49:30;;;;;;;51.20;28.63;;;;;;;11.26;80.60;100749.42;3687309;78;99032;-90
2022/10/13 20:54:30;;;;;;;43.73;26.83;;;;;;;11.23;80.85;100747.42;3705626;78;34910;-90
2022/10/13 20:59:31;;;;;;;51.70;29.37;;;;;;;11.18;80.88;100748.52;3707088;78;98608;-90
2022/10/13 21:04:34;;;;;;;48.68;27.70;;;;;;;11.16;81.21;100736.29;3702853;78;34919;-89
2022/10/13 21:09:35;;;;;;;50.00;29.05;;;;;;;11.13;81.23;100746.69;3707369;77;99008;-88
2022/10/13 21:14:36;;;;;;;47.73;27.70;;;;;;;11.10;81.42;100739.97;3712613;77;32089;-90
2022/10/13 21:19:37;;;;;;;55.13;31.07;;;;;;;11.10;81.49;100743.30;3682486;78;99276;-89
2022/10/13 21:24:38;;;;;;;48.37;28.27;;;;;;;11.07;81.83;100731.06;3706772;78;26425;-89
2022/10/13 21:29:39;;;;;;;46.27;28.03;;;;;;;11.05;82.05;100727.89;3686467;78;99470;-89
2022/10/13 21:34:39;;;;;;;50.33;29.70;;;;;;;11.06;82.29;100727.32;3684562;79;26075;-88
2022/10/13 21:39:40;;;;;;;48.40;30.53;;;;;;;11.04;82.22;100726.88;3688513;78;98616;-88
2022/10/13 21:44:41;;;;;;;46.47;27.93;;;;;;;11.01;82.50;100733.16;3713347;78;33743;-89
2022/10/13 21:49:41;;;;;;;47.20;27.67;;;;;;;10.99;82.75;100725.25;3683376;78;98692;-89
2022/10/13 21:54:42;;;;;;;49.40;29.37;;;;;;;10.95;82.74;100731.29;3674667;79;28281;-88
2022/10/13 21:59:43;;;;;;;47.27;28.83;;;;;;;10.94;82.96;100726.14;3673423;77;99200;-89
2022/10/13 22:04:44;;;;;;;46.73;28.53;;;;;;;10.90;82.95;100725.32;3712599;77;26168;-89
2022/10/13 22:09:48;;;;;;;49.03;29.33;;;;;;;10.86;83.03;100725.25;3662301;76;99253;-89
2022/10/13 22:14:48;;;;;;;49.00;28.77;;;;;;;10.82;83.17;100720.29;3642972;79;27723;-89
2022/10/13 22:19:48;;;;;;;53.77;30.03;;;;;;;10.79;83.25;100721.02;3717597;78;98738;-88
2022/10/13 22:24:49;;;;;;;46.70;28.63;;;;;;;10.76;83.42;100720.41;3735153;78;27009;-89
2022/10/13 22:29:50;;;;;;;46.53;27.13;;;;;;;10.74;83.54;100709.55;3741152;77;98728;-89
2022/10/13 22:34:51;;;;;;;54.07;31.60;;;;;;;10.71;83.70;100702.83;3746299;77;25947;-88
2022/10/13 22:39:52;;;;;;;51.93;30.67;;;;;;;10.70;83.83;100701.81;3702226;78;98961;-90
2022/10/13 22:44:52;;;;;;;51.47;30.57;;;;;;;10.67;83.98;100693.71;3697808;79;26364;-88
2022/10/13 22:49:53;;;;;;;50.85;30.62;;;;;;;10.66;84.12;100693.50;3693697;78;98587;-89
2022/10/13 22:54:54;;;;;;;52.00;29.90;;;;;;;10.63;84.31;100688.73;3701042;78;33368;-89
2022/10/13 22:59:54;;;;;;;55.33;32.70;;;;;;;10.64;84.43;100687.56;3699172;79;98582;-89
2022/10/13 23:04:55;;;;;;;54.75;31.10;;;;;;;10.67;84.44;100694.28;3709707;79;26515;-89
2022/10/13 23:09:56;;;;;;;54.93;31.87;;;;;;;10.65;84.59;100696.62;3679988;78;98957;-89
2022/10/13 23:14:57;;;;;;;49.30;30.20;;;;;;;10.58;84.83;100685.52;3696615;79;32918;-88
2022/10/13 23:19:57;;;;;;;52.00;29.23;;;;;;;10.56;84.83;100692.77;3697124;78;98789;-88
2022/10/13 23:24:58;;;;;;;50.50;30.65;;;;;;;10.52;85.06;100690.53;3701620;79;32973;-88